CPX665 Details

Departure: Savannah/Hilton Head International Airport (KSAV)
Arrival: Miami International Airport (KMIA)
Route: KELER V437 OMN V3 FLL


Current Weather Information
KSAV 181453Z 33006KT 10SM SCT250 16/01 A3023 RMK AO2 SLP235 T01610011 51016
KMIA 181453Z 36005KT 10SM FEW010 SCT130 BKN240 23/19 A3006 RMK AO2 SLP178 T02330194 53013